Time;durP1;ratioP1;P1;durP2;ratioP2;P2;SDS_P1;SDS_P2;PMS_P1;PMS_P2;Temp;Humidity;BMP_temperature;BMP_pressure;BME280_temperature;BME280_humidity;BME280_pressure;Samples;Min_cycle;Max_cycle;Signal;HPM_P1;HPM_P2
2022/11/25 00:01:17;;;;;;;0.73;0.73;;;6.60;82.90;;;;;;4999156;28;20181;-74
2022/11/25 00:03:44;;;;;;;0.60;0.60;;;6.60;82.90;;;;;;5002493;28;20686;-74
2022/11/25 00:06:19;;;;;;;0.70;0.70;;;6.60;83.10;;;;;;5000707;28;20247;-75
2022/11/25 00:08:46;;;;;;;0.80;0.80;;;6.60;82.90;;;;;;5001352;28;20965;-75
2022/11/25 00:11:13;;;;;;;0.70;0.70;;;6.60;83.00;;;;;;4994073;28;20177;-75
2022/11/25 00:13:40;;;;;;;0.90;0.90;;;6.60;82.90;;;;;;4997171;28;20181;-75
2022/11/25 00:16:11;;;;;;;0.77;0.77;;;6.50;83.10;;;;;;4997304;28;20899;-75
2022/11/25 00:18:37;;;;;;;0.73;0.73;;;6.60;83.00;;;;;;4996401;28;20213;-75
2022/11/25 00:21:08;;;;;;;0.60;0.60;;;6.60;82.70;;;;;;4996002;28;20320;-75
2022/11/25 00:23:35;;;;;;;0.50;0.50;;;6.50;82.70;;;;;;4996332;28;20714;-75
2022/11/25 00:26:15;;;;;;;2.10;0.80;;;6.40;82.90;;;;;;4995743;28;20937;-75
2022/11/25 00:28:43;;;;;;;1.37;0.90;;;6.50;82.60;;;;;;4999755;28;20612;-74
2022/11/25 00:31:20;;;;;;;0.60;0.60;;;6.40;82.90;;;;;;4996284;28;20247;-74
2022/11/25 00:33:48;;;;;;;0.87;0.83;;;6.50;82.80;;;;;;4998982;28;20284;-73
2022/11/25 00:36:21;;;;;;;0.90;0.90;;;6.50;82.80;;;;;;4998077;28;20203;-74
2022/11/25 00:38:51;;;;;;;0.97;0.97;;;6.50;83.00;;;;;;4999915;28;20296;-75
2022/11/25 00:47:19;;;;;;;1.17;1.10;;;6.50;83.50;;;;;;4998500;28;20280;-74
2022/11/25 00:49:53;;;;;;;0.97;0.97;;;6.40;83.90;;;;;;4999735;28;20737;-75
2022/11/25 00:52:24;;;;;;;1.10;1.00;;;6.40;84.10;;;;;;4998144;28;20224;-75
2022/11/25 00:54:50;;;;;;;0.80;0.80;;;6.50;83.70;;;;;;4998788;28;20189;-75
2022/11/25 00:57:18;;;;;;;1.23;1.00;;;6.50;83.70;;;;;;4998960;28;20216;-74
2022/11/25 00:59:44;;;;;;;1.20;1.20;;;6.50;83.60;;;;;;4998710;28;20185;-74
2022/11/25 01:02:11;;;;;;;0.90;0.90;;;6.40;83.70;;;;;;4982848;28;20203;-75
2022/11/25 01:04:37;;;;;;;1.00;0.90;;;6.40;83.90;;;;;;4999340;28;20195;-74
2022/11/25 01:07:03;;;;;;;0.97;0.97;;;6.50;83.80;;;;;;4999158;28;20185;-74
2022/11/25 01:09:29;;;;;;;1.17;0.63;;;6.60;83.40;;;;;;4982788;28;20564;-74
2022/11/25 01:11:55;;;;;;;1.33;0.83;;;6.60;83.30;;;;;;4998659;28;20247;-74
2022/11/25 01:14:22;;;;;;;1.03;1.03;;;6.60;83.20;;;;;;4998252;28;20938;-74
2022/11/25 01:16:48;;;;;;;0.93;0.93;;;6.60;83.20;;;;;;4999168;28;20273;-74
2022/11/25 01:19:15;;;;;;;1.10;1.10;;;6.60;83.10;;;;;;4999126;28;20181;-75
2022/11/25 01:21:41;;;;;;;1.00;1.00;;;6.60;83.30;;;;;;4997814;28;20403;-75
2022/11/25 01:24:07;;;;;;;0.77;0.77;;;6.60;83.30;;;;;;4997476;28;20264;-75
2022/11/25 01:26:35;;;;;;;1.00;1.00;;;6.60;83.30;;;;;;4996783;28;20185;-74
2022/11/25 01:29:03;;;;;;;1.03;0.67;;;6.60;83.40;;;;;;5000294;28;20678;-74
2022/11/25 01:31:32;;;;;;;0.97;0.97;;;6.60;83.40;;;;;;4997274;28;20575;-74
2022/11/25 01:34:01;;;;;;;1.23;0.90;;;6.50;83.40;;;;;;5000119;28;20747;-75
2022/11/25 01:36:27;;;;;;;0.87;0.87;;;6.60;83.30;;;;;;5000053;28;20239;-75
2022/11/25 01:38:55;;;;;;;1.23;1.13;;;6.60;83.30;;;;;;4995154;28;20217;-74
2022/11/25 01:41:22;;;;;;;0.77;0.77;;;6.70;83.10;;;;;;4998256;28;20260;-75
2022/11/25 01:44:09;;;;;;;0.73;0.73;;;6.70;82.80;;;;;;5000126;28;20547;-74
2022/11/25 01:47:02;;;;;;;0.77;0.77;;;6.70;82.40;;;;;;4999304;28;20181;-75
2022/11/25 01:49:46;;;;;;;0.97;0.60;;;6.70;82.30;;;;;;5007998;28;20177;-74
2022/11/25 01:52:24;;;;;;;0.70;0.70;;;6.70;82.10;;;;;;4995769;28;20312;-75
2022/11/25 01:54:59;;;;;;;0.70;0.70;;;6.70;81.90;;;;;;4993787;28;20240;-74
2022/11/25 01:57:39;;;;;;;0.70;0.60;;;6.70;81.70;;;;;;5000063;28;20192;-75
2022/11/25 02:00:07;;;;;;;0.70;0.70;;;6.80;81.80;;;;;;5002592;28;20185;-75
2022/11/25 02:02:33;;;;;;;0.40;0.40;;;6.80;81.40;;;;;;5001231;28;20670;-75
2022/11/25 02:05:06;;;;;;;0.70;0.70;;;6.80;81.20;;;;;;5000811;28;20269;-74
2022/11/25 02:07:36;;;;;;;0.60;0.60;;;6.80;81.30;;;;;;5000888;28;20266;-74
2022/11/25 02:10:07;;;;;;;0.70;0.70;;;6.90;81.00;;;;;;5003210;28;20234;-75
2022/11/25 02:12:35;;;;;;;4.13;0.73;;;6.90;80.80;;;;;;5002247;28;20197;-75
2022/11/25 02:15:03;;;;;;;0.70;0.70;;;6.90;80.70;;;;;;5002931;28;20189;-75
2022/11/25 02:17:29;;;;;;;0.57;0.57;;;6.90;80.80;;;;;;4999081;28;20185;-74
2022/11/25 02:20:13;;;;;;;1.00;0.93;;;6.90;80.70;;;;;;5003336;28;20204;-75
2022/11/25 02:23:04;;;;;;;0.70;0.70;;;6.90;80.70;;;;;;5002236;28;20207;-75
2022/11/25 02:25:36;;;;;;;0.53;0.53;;;6.90;80.70;;;;;;5000114;28;20181;-74
2022/11/25 02:28:08;;;;;;;0.50;0.50;;;7.00;80.40;;;;;;5001573;28;20189;-75
2022/11/25 02:30:34;;;;;;;1.60;0.60;;;6.80;80.30;;;;;;5001427;28;20691;-75
2022/11/25 02:33:00;;;;;;;0.60;0.60;;;6.70;80.10;;;;;;5002063;28;20367;-75
2022/11/25 02:35:34;;;;;;;0.37;0.37;;;6.60;80.40;;;;;;5002575;28;20282;-75
2022/11/25 02:38:05;;;;;;;0.50;0.50;;;6.70;80.50;;;;;;4998364;28;20214;-75
2022/11/25 02:40:35;;;;;;;0.70;0.70;;;6.70;80.00;;;;;;5002317;28;20573;-75
2022/11/25 02:43:00;;;;;;;1.57;0.50;;;6.70;80.10;;;;;;5000275;28;20197;-73
2022/11/25 02:45:46;;;;;;;0.47;0.47;;;6.60;80.00;;;;;;5000761;28;20204;-74
2022/11/25 02:48:12;;;;;;;0.50;0.50;;;6.70;79.90;;;;;;5003009;28;20679;-75
2022/11/25 02:50:37;;;;;;;1.23;0.60;;;6.70;79.70;;;;;;5003550;28;20272;-75
2022/11/25 02:53:03;;;;;;;0.70;0.60;;;6.70;79.70;;;;;;4998752;28;20732;-75
2022/11/25 02:55:29;;;;;;;0.50;0.50;;;6.80;79.70;;;;;;5000520;28;20762;-75
2022/11/25 02:57:55;;;;;;;0.67;0.67;;;6.70;79.70;;;;;;5003213;28;20193;-75
2022/11/25 03:00:20;;;;;;;0.50;0.50;;;6.60;80.00;;;;;;5003378;28;20185;-75
2022/11/25 03:02:47;;;;;;;0.67;0.67;;;6.60;80.30;;;;;;5001748;28;20997;-75
2022/11/25 03:05:12;;;;;;;0.63;0.63;;;6.60;80.40;;;;;;5002302;28;20187;-74
2022/11/25 03:07:38;;;;;;;2.20;0.50;;;6.60;80.50;;;;;;5002452;28;20651;-76
2022/11/25 03:10:04;;;;;;;0.50;0.50;;;6.60;81.00;;;;;;5002672;28;20181;-74
2022/11/25 03:12:31;;;;;;;0.60;0.60;;;6.60;81.00;;;;;;5001763;28;20205;-75
2022/11/25 03:14:56;;;;;;;0.87;0.83;;;6.60;81.10;;;;;;5001511;28;20567;-74
2022/11/25 03:17:22;;;;;;;0.80;0.80;;;6.60;81.30;;;;;;5001545;28;20196;-75
2022/11/25 03:19:48;;;;;;;0.70;0.70;;;6.50;81.50;;;;;;5000126;28;20691;-76
2022/11/25 03:22:13;;;;;;;1.00;1.00;;;6.60;81.60;;;;;;4997895;28;20208;-74
2022/11/25 03:24:39;;;;;;;0.67;0.67;;;6.50;81.70;;;;;;5003030;28;20223;-74
2022/11/25 03:27:05;;;;;;;0.83;0.83;;;6.60;81.80;;;;;;5001185;28;21043;-75
2022/11/25 03:29:31;;;;;;;0.90;0.90;;;6.50;82.10;;;;;;5001588;28;20180;-74
2022/11/25 03:31:56;;;;;;;0.73;0.73;;;6.50;82.40;;;;;;4997762;28;20204;-75
2022/11/25 03:34:22;;;;;;;0.63;0.60;;;6.50;82.50;;;;;;5000903;28;20181;-75
2022/11/25 03:36:48;;;;;;;1.77;0.60;;;6.40;82.90;;;;;;4995047;28;20196;-74
2022/11/25 03:39:13;;;;;;;1.03;0.90;;;6.50;83.10;;;;;;5000636;28;20220;-74
2022/11/25 03:41:39;;;;;;;1.00;0.93;;;6.40;83.50;;;;;;5003464;28;20176;-75
2022/11/25 03:44:05;;;;;;;1.00;1.00;;;6.30;83.90;;;;;;4999517;28;20258;-75
2022/11/25 03:46:30;;;;;;;1.00;1.00;;;6.30;84.10;;;;;;5000734;28;20185;-75
2022/11/25 03:48:56;;;;;;;0.80;0.80;;;6.40;84.00;;;;;;4996525;28;20189;-74
2022/11/25 03:51:22;;;;;;;0.70;0.70;;;6.30;84.70;;;;;;4989183;28;20186;-75
2022/11/25 03:53:47;;;;;;;0.70;0.70;;;6.20;85.20;;;;;;4999869;28;20196;-75
2022/11/25 03:56:13;;;;;;;1.10;1.10;;;6.10;85.50;;;;;;4998309;28;20189;-74
2022/11/25 03:58:39;;;;;;;0.97;0.97;;;6.10;85.50;;;;;;4996375;28;20177;-75
2022/11/25 04:01:05;;;;;;;0.57;0.57;;;6.10;85.60;;;;;;4999710;28;22027;-74
2022/11/25 04:03:30;;;;;;;0.80;0.80;;;6.10;85.50;;;;;;4996458;28;20842;-74
2022/11/25 04:05:56;;;;;;;0.70;0.70;;;6.10;85.50;;;;;;4997803;28;20263;-74
2022/11/25 04:08:22;;;;;;;0.70;0.70;;;6.10;85.80;;;;;;4998499;28;20259;-74
2022/11/25 04:10:49;;;;;;;0.80;0.80;;;6.00;86.00;;;;;;4998442;28;20185;-74
2022/11/25 04:13:15;;;;;;;0.60;0.60;;;5.90;86.30;;;;;;5001811;28;20204;-74
2022/11/25 04:15:48;;;;;;;0.63;0.50;;;6.00;86.20;;;;;;4999967;28;20181;-75
2022/11/25 04:18:14;;;;;;;0.63;0.63;;;5.90;86.20;;;;;;5001347;28;20188;-74
2022/11/25 04:20:41;;;;;;;0.93;0.93;;;5.90;86.30;;;;;;5002899;28;20196;-74
2022/11/25 04:23:07;;;;;;;0.50;0.50;;;6.00;85.90;;;;;;5001263;28;20198;-75
2022/11/25 04:25:33;;;;;;;0.40;0.40;;;6.00;85.70;;;;;;5002477;28;20192;-74
2022/11/25 04:27:59;;;;;;;0.50;0.50;;;6.00;85.80;;;;;;4999830;28;20826;-74
2022/11/25 04:30:25;;;;;;;0.70;0.70;;;6.00;85.70;;;;;;4999550;28;20253;-74
2022/11/25 04:32:51;;;;;;;0.50;0.50;;;5.90;85.80;;;;;;4996505;28;20213;-75
2022/11/25 04:35:16;;;;;;;0.70;0.70;;;5.90;86.00;;;;;;4997997;28;20239;-76
2022/11/25 04:37:42;;;;;;;0.60;0.60;;;5.90;86.00;;;;;;5001715;28;20187;-74
2022/11/25 04:40:08;;;;;;;0.50;0.50;;;5.90;85.70;;;;;;5000764;28;20177;-74
2022/11/25 04:42:35;;;;;;;0.60;0.60;;;5.90;85.80;;;;;;5000950;28;20215;-73
2022/11/25 04:45:04;;;;;;;1.77;0.77;;;6.00;85.70;;;;;;4998700;28;20200;-74
2022/11/25 04:47:30;;;;;;;0.70;0.60;;;5.90;85.80;;;;;;4997112;28;20196;-74
2022/11/25 04:49:56;;;;;;;0.47;0.40;;;5.90;85.80;;;;;;5001023;28;20183;-75
2022/11/25 04:52:22;;;;;;;0.63;0.63;;;5.90;85.80;;;;;;4997232;28;20212;-72
2022/11/25 04:54:48;;;;;;;0.40;0.40;;;5.90;85.70;;;;;;5002898;28;20738;-73
2022/11/25 04:57:15;;;;;;;0.63;0.57;;;5.90;85.60;;;;;;4999567;28;20185;-73
2022/11/25 04:59:43;;;;;;;0.50;0.50;;;5.90;85.60;;;;;;4995677;28;20182;-74
2022/11/25 05:02:13;;;;;;;0.40;0.40;;;5.90;85.50;;;;;;4999815;28;20204;-74
2022/11/25 05:04:38;;;;;;;0.50;0.50;;;6.00;85.20;;;;;;5000573;28;20186;-73
2022/11/25 05:07:04;;;;;;;0.50;0.50;;;6.00;85.10;;;;;;5000914;28;20327;-73
2022/11/25 05:09:30;;;;;;;0.70;0.70;;;6.00;85.10;;;;;;5001770;28;20746;-73
2022/11/25 05:11:56;;;;;;;0.40;0.40;;;6.10;84.60;;;;;;4998014;28;20201;-71
2022/11/25 05:14:22;;;;;;;0.50;0.50;;;6.10;84.60;;;;;;4997702;28;20659;-74
2022/11/25 05:16:48;;;;;;;0.50;0.50;;;6.10;84.50;;;;;;4999582;28;20913;-76
2022/11/25 05:19:14;;;;;;;0.50;0.50;;;6.10;84.40;;;;;;5003152;28;20189;-75
2022/11/25 05:21:39;;;;;;;0.67;0.67;;;6.10;84.50;;;;;;5000510;28;20193;-75
2022/11/25 05:24:05;;;;;;;0.50;0.50;;;6.10;84.50;;;;;;5000251;28;20694;-74
2022/11/25 05:26:31;;;;;;;0.50;0.50;;;6.10;84.20;;;;;;4999322;28;20552;-74
2022/11/25 05:28:56;;;;;;;0.50;0.50;;;6.10;84.20;;;;;;4997708;28;21007;-75
2022/11/25 05:31:22;;;;;;;0.60;0.60;;;6.10;84.20;;;;;;5000003;28;20185;-73
2022/11/25 05:33:48;;;;;;;0.60;0.60;;;6.10;84.20;;;;;;5001324;28;20208;-71
2022/11/25 05:36:13;;;;;;;0.63;0.63;;;6.10;84.10;;;;;;5004274;28;20196;-71
2022/11/25 05:38:39;;;;;;;0.50;0.50;;;6.00;84.10;;;;;;4999993;28;20364;-76
2022/11/25 05:41:06;;;;;;;0.70;0.70;;;6.10;84.00;;;;;;4999172;28;20279;-73
2022/11/25 05:43:32;;;;;;;1.90;0.60;;;6.10;83.80;;;;;;4999993;28;20243;-73
2022/11/25 05:45:58;;;;;;;0.50;0.50;;;6.10;83.70;;;;;;5001320;28;20585;-74
2022/11/25 05:48:24;;;;;;;1.23;0.60;;;6.10;83.80;;;;;;5002039;28;20192;-75
2022/11/25 05:50:49;;;;;;;0.77;0.77;;;6.20;83.50;;;;;;4999406;28;20188;-74
2022/11/25 06:06:12;;;;;;;0.40;0.40;;;6.30;82.40;;;;;;4575261;23;20233;-72
2022/11/25 06:08:38;;;;;;;0.50;0.50;;;6.40;82.30;;;;;;4942801;28;20184;-72
2022/11/25 06:11:06;;;;;;;0.50;0.50;;;6.30;82.00;;;;;;4947318;28;20597;-72
2022/11/25 06:13:32;;;;;;;0.63;0.63;;;6.30;82.00;;;;;;4957253;28;20659;-73
2022/11/25 06:15:58;;;;;;;0.60;0.60;;;6.40;82.00;;;;;;4958442;28;20577;-73
2022/11/25 06:18:23;;;;;;;0.60;0.60;;;6.50;81.80;;;;;;4956989;28;20183;-73
2022/11/25 06:20:58;;;;;;;0.93;0.77;;;6.50;81.40;;;;;;4957269;28;20237;-73
2022/11/25 06:23:25;;;;;;;2.03;0.77;;;6.50;81.20;;;;;;4956944;28;20664;-73
2022/11/25 06:25:51;;;;;;;0.57;0.57;;;6.60;81.30;;;;;;4953622;28;20261;-73
2022/11/25 06:28:17;;;;;;;1.03;0.87;;;6.60;80.80;;;;;;4948235;28;20581;-72
2022/11/25 06:30:42;;;;;;;0.70;0.70;;;6.60;80.80;;;;;;4954407;28;20954;-72
2022/11/25 06:33:08;;;;;;;1.10;1.10;;;6.70;80.80;;;;;;4941013;28;20236;-72
2022/11/25 06:35:35;;;;;;;0.67;0.67;;;6.70;80.50;;;;;;4948562;28;20240;-72
2022/11/25 06:38:01;;;;;;;0.70;0.70;;;6.70;80.20;;;;;;4957559;28;20190;-72
2022/11/25 06:40:26;;;;;;;0.83;0.83;;;6.70;80.10;;;;;;4958642;28;20293;-72
2022/11/25 06:42:52;;;;;;;0.57;0.57;;;6.70;80.10;;;;;;4934810;28;20187;-72
2022/11/25 06:45:18;;;;;;;1.70;1.00;;;6.70;80.10;;;;;;4954541;28;20288;-72
2022/11/25 06:47:43;;;;;;;0.90;0.90;;;6.60;80.10;;;;;;4949247;28;20193;-71
2022/11/25 06:50:09;;;;;;;1.10;1.00;;;6.70;80.30;;;;;;4950514;28;20214;-72
2022/11/25 06:52:35;;;;;;;1.23;1.13;;;6.70;80.40;;;;;;4954466;28;20222;-72
2022/11/25 06:55:01;;;;;;;0.90;0.90;;;6.70;80.60;;;;;;4951717;28;20182;-72
2022/11/25 06:57:27;;;;;;;0.67;0.67;;;6.70;80.60;;;;;;4951683;28;20218;-72
2022/11/25 06:59:52;;;;;;;0.80;0.80;;;6.80;80.30;;;;;;4952639;28;20186;-71
2022/11/25 07:02:18;;;;;;;1.00;1.00;;;6.80;80.40;;;;;;4936754;28;20218;-72
2022/11/25 07:04:44;;;;;;;1.00;0.97;;;6.80;80.20;;;;;;4956937;28;20677;-73
2022/11/25 07:07:10;;;;;;;1.00;1.00;;;6.90;80.30;;;;;;4952711;28;20205;-72
2022/11/25 07:09:36;;;;;;;0.80;0.80;;;7.00;80.20;;;;;;4958388;28;20667;-71
2022/11/25 07:12:02;;;;;;;0.87;0.87;;;7.00;80.00;;;;;;4956899;28;20245;-72
2022/11/25 07:14:27;;;;;;;0.87;0.87;;;7.10;79.60;;;;;;4953692;28;20189;-72
2022/11/25 07:16:53;;;;;;;1.17;1.17;;;7.10;79.60;;;;;;4954704;28;20186;-73
2022/11/25 07:19:19;;;;;;;1.60;1.50;;;7.20;79.50;;;;;;4949095;28;20195;-72
2022/11/25 07:21:45;;;;;;;1.20;1.20;;;7.10;79.20;;;;;;4953515;28;20191;-72
2022/11/25 07:24:14;;;;;;;2.23;1.00;;;7.10;79.20;;;;;;4948958;28;20913;-74
2022/11/25 07:26:41;;;;;;;1.10;1.10;;;7.10;79.10;;;;;;4955463;28;20202;-72
2022/11/25 07:29:09;;;;;;;0.90;0.90;;;7.10;79.40;;;;;;4952947;28;20190;-73
2022/11/25 07:31:40;;;;;;;1.17;1.17;;;7.20;79.30;;;;;;4952379;28;20290;-73
2022/11/25 07:34:22;;;;;;;1.10;1.10;;;7.20;78.90;;;;;;4954595;28;20183;-73
2022/11/25 07:36:49;;;;;;;1.43;1.33;;;7.20;79.00;;;;;;4948498;28;20775;-73
2022/11/25 07:39:17;;;;;;;1.47;1.47;;;7.30;78.80;;;;;;4950488;28;20733;-73
2022/11/25 07:41:43;;;;;;;1.20;1.20;;;7.30;78.70;;;;;;4952580;28;20183;-73
2022/11/25 07:44:12;;;;;;;1.47;1.37;;;7.20;78.50;;;;;;4954869;28;20738;-73
2022/11/25 07:46:44;;;;;;;1.07;1.07;;;7.20;78.80;;;;;;4955513;28;20312;-73
2022/11/25 07:49:14;;;;;;;1.30;1.30;;;7.40;78.50;;;;;;4953091;28;20254;-73
2022/11/25 07:51:42;;;;;;;1.70;1.07;;;7.70;78.30;;;;;;4953911;28;20631;-72
2022/11/25 07:54:11;;;;;;;1.30;1.30;;;8.00;77.10;;;;;;4954087;28;20189;-73
2022/11/25 07:56:38;;;;;;;1.70;1.13;;;8.40;76.10;;;;;;4949036;28;20183;-74
2022/11/25 07:59:06;;;;;;;0.93;0.93;;;8.80;75.20;;;;;;4956097;28;20649;-71
2022/11/25 08:01:31;;;;;;;0.90;0.90;;;9.20;73.80;;;;;;4951637;28;20227;-73
2022/11/25 08:03:57;;;;;;;1.10;1.10;;;9.50;72.50;;;;;;4950258;28;20563;-73
2022/11/25 08:06:26;;;;;;;1.27;1.27;;;9.80;71.90;;;;;;4953960;28;20225;-73
2022/11/25 08:08:54;;;;;;;1.27;1.27;;;10.10;71.30;;;;;;4952920;28;20274;-73
2022/11/25 08:11:28;;;;;;;1.38;1.38;;;10.30;70.70;;;;;;4951694;28;20206;-71
2022/11/25 08:13:54;;;;;;;1.40;1.38;;;10.60;70.20;;;;;;4950199;28;20204;-71
2022/11/25 08:16:22;;;;;;;1.63;1.35;;;10.90;69.90;;;;;;4952745;28;20214;-73
2022/11/25 08:18:48;;;;;;;1.50;1.50;;;11.10;69.50;;;;;;4950721;28;20175;-71
2022/11/25 08:21:18;;;;;;;1.23;1.23;;;11.40;68.90;;;;;;4952302;28;20181;-73
2022/11/25 08:23:47;;;;;;;1.52;1.52;;;11.60;68.70;;;;;;4954673;28;20194;-72
2022/11/25 08:26:17;;;;;;;1.27;1.27;;;11.80;68.20;;;;;;4950472;28;20183;-73
2022/11/25 08:28:43;;;;;;;1.25;1.25;;;12.00;67.00;;;;;;4954196;28;20205;-73
2022/11/25 08:31:15;;;;;;;1.70;1.63;;;11.90;66.70;;;;;;4953501;28;20450;-72
2022/11/25 08:33:41;;;;;;;1.63;1.55;;;11.70;67.30;;;;;;4950680;28;21006;-73
2022/11/25 08:36:07;;;;;;;1.55;1.55;;;11.90;68.40;;;;;;4951854;28;20187;-73
2022/11/25 08:38:33;;;;;;;1.88;1.77;;;12.30;67.30;;;;;;4951909;28;20792;-73
2022/11/25 08:40:59;;;;;;;1.23;1.23;;;12.70;67.80;;;;;;4956664;28;20681;-73
2022/11/25 08:43:26;;;;;;;1.60;1.35;;;13.10;66.30;;;;;;4951737;28;20775;-72
2022/11/25 08:45:52;;;;;;;2.33;2.22;;;13.40;64.90;;;;;;4948484;28;20218;-71
2022/11/25 08:48:19;;;;;;;1.55;1.48;;;13.30;64.50;;;;;;4952835;28;20214;-73
2022/11/25 08:50:49;;;;;;;2.30;2.20;;;13.20;64.20;;;;;;4952600;28;20747;-73
2022/11/25 08:53:15;;;;;;;1.73;1.73;;;13.30;64.20;;;;;;4951002;28;20321;-73
2022/11/25 08:55:41;;;;;;;1.58;1.58;;;13.40;63.30;;;;;;4955830;28;20183;-73
2022/11/25 08:58:10;;;;;;;1.75;1.65;;;13.30;63.40;;;;;;4952376;28;20191;-73
2022/11/25 09:00:43;;;;;;;2.55;1.40;;;13.40;64.50;;;;;;4950576;28;20221;-73
2022/11/25 09:03:10;;;;;;;1.52;1.52;;;13.60;64.50;;;;;;4952326;28;20190;-73
2022/11/25 09:05:40;;;;;;;1.60;1.55;;;13.80;62.90;;;;;;4954467;28;20194;-73
2022/11/25 09:08:07;;;;;;;2.08;1.48;;;13.70;63.00;;;;;;4948769;28;20685;-72
2022/11/25 09:10:34;;;;;;;1.80;1.70;;;13.60;63.10;;;;;;4945514;28;20195;-71
2022/11/25 09:13:00;;;;;;;1.75;1.75;;;13.60;63.00;;;;;;4952313;28;20223;-72
2022/11/25 09:15:26;;;;;;;1.65;1.65;;;13.70;63.20;;;;;;4950949;28;20586;-72
2022/11/25 09:18:02;;;;;;;2.47;2.28;;;13.80;64.40;;;;;;4954916;28;20321;-72
2022/11/25 09:20:29;;;;;;;1.95;1.85;;;14.20;63.50;;;;;;4951124;28;20605;-72
2022/11/25 09:22:54;;;;;;;1.50;1.50;;;14.30;61.70;;;;;;4953878;28;20213;-72
2022/11/25 09:25:21;;;;;;;2.45;2.35;;;14.10;62.60;;;;;;4938376;28;20191;-72
2022/11/25 09:27:47;;;;;;;1.60;1.38;;;14.10;62.70;;;;;;4954907;28;20273;-73
2022/11/25 09:30:13;;;;;;;1.55;1.55;;;14.00;61.90;;;;;;4934691;28;20238;-73
2022/11/25 09:32:39;;;;;;;2.10;1.95;;;13.90;62.00;;;;;;4955490;28;20837;-73
2022/11/25 09:35:05;;;;;;;1.67;1.58;;;14.10;62.50;;;;;;4949565;28;20194;-73
2022/11/25 09:37:31;;;;;;;1.80;1.70;;;13.90;62.30;;;;;;4954611;28;20187;-72
2022/11/25 09:39:56;;;;;;;2.28;1.95;;;13.50;63.00;;;;;;4950449;28;20194;-73
2022/11/25 09:48:27;;;;;;;1.23;1.23;;;13.80;62.20;;;;;;4912088;29;20291;-73
2022/11/25 09:51:04;;;;;;;1.48;1.45;;;14.20;62.10;;;;;;4911960;29;20263;-73
2022/11/25 09:54:00;;;;;;;1.58;1.58;;;14.50;61.00;;;;;;4912762;29;20227;-73
2022/11/25 09:56:38;;;;;;;1.33;1.30;;;14.40;61.30;;;;;;4919805;29;20836;-73
2022/11/25 09:59:13;;;;;;;1.63;1.60;;;14.10;61.50;;;;;;4911144;29;20196;-73
2022/11/25 10:01:47;;;;;;;3.63;1.40;;;13.90;62.90;;;;;;4914453;29;20281;-71
2022/11/25 10:04:30;;;;;;;1.45;1.45;;;14.00;62.20;;;;;;4912666;29;20179;-73
2022/11/25 10:07:00;;;;;;;1.38;1.38;;;14.00;62.20;;;;;;4910897;29;20219;-73
2022/11/25 10:09:29;;;;;;;1.40;1.40;;;14.10;62.00;;;;;;4913179;29;20198;-72
2022/11/25 10:12:03;;;;;;;1.30;1.30;;;13.90;61.60;;;;;;4909799;29;20231;-72
2022/11/25 10:14:38;;;;;;;1.60;1.60;;;13.60;62.50;;;;;;4912198;29;21059;-74
2022/11/25 10:17:09;;;;;;;1.13;1.13;;;13.30;62.50;;;;;;4915382;29;20236;-73
2022/11/25 10:19:50;;;;;;;1.23;1.23;;;13.00;63.60;;;;;;4914503;29;20197;-73
2022/11/25 10:22:36;;;;;;;1.45;1.38;;;12.80;64.50;;;;;;4911026;29;20269;-73
2022/11/25 10:25:14;;;;;;;1.08;1.08;;;12.40;64.40;;;;;;4926688;28;20203;-72
2022/11/25 10:28:00;;;;;;;0.82;0.82;;;12.30;64.70;;;;;;4951242;28;20182;-72
2022/11/25 10:30:52;;;;;;;0.80;0.80;;;12.00;64.60;;;;;;4956205;28;20250;-72
2022/11/25 10:33:25;;;;;;;1.45;1.38;;;11.60;65.70;;;;;;4956987;28;20222;-72
2022/11/25 10:35:58;;;;;;;1.15;1.15;;;11.50;66.30;;;;;;4953144;28;20182;-72
2022/11/25 10:38:36;;;;;;;1.48;1.42;;;11.40;66.40;;;;;;4956460;28;20225;-73
2022/11/25 10:41:03;;;;;;;0.90;0.90;;;11.60;66.60;;;;;;4958989;28;20182;-73
2022/11/25 10:43:31;;;;;;;1.10;1.00;;;11.80;65.50;;;;;;4957184;28;20262;-72
2022/11/25 10:46:16;;;;;;;1.02;1.00;;;12.10;65.20;;;;;;4958378;28;20544;-72
2022/11/25 10:49:00;;;;;;;1.25;0.80;;;12.40;64.20;;;;;;4953043;28;20175;-72
2022/11/25 10:51:46;;;;;;;0.98;0.88;;;12.50;63.20;;;;;;4952131;28;20291;-72
2022/11/25 10:54:20;;;;;;;0.73;0.73;;;12.60;63.50;;;;;;4956155;28;20679;-74
2022/11/25 10:56:57;;;;;;;0.82;0.82;;;12.90;63.70;;;;;;4954663;28;20730;-72
2022/11/25 10:59:24;;;;;;;0.98;0.60;;;13.20;62.20;;;;;;4957336;28;20182;-72
2022/11/25 11:01:52;;;;;;;1.33;0.90;;;12.90;62.40;;;;;;4957410;28;20171;-72
2022/11/25 11:04:18;;;;;;;0.80;0.80;;;12.60;63.50;;;;;;4954237;28;20733;-71
2022/11/25 11:06:47;;;;;;;0.93;0.93;;;12.50;63.70;;;;;;4958589;28;20208;-74
2022/11/25 11:09:33;;;;;;;0.75;0.75;;;12.00;64.50;;;;;;4956071;28;20179;-73
2022/11/25 11:12:22;;;;;;;1.17;1.13;;;11.30;65.90;;;;;;4959964;28;20202;-72
2022/11/25 11:14:48;;;;;;;1.50;1.25;;;10.70;67.70;;;;;;4958440;28;20201;-71
2022/11/25 11:17:30;;;;;;;2.00;1.42;;;10.50;68.30;;;;;;4953240;28;20270;-71
2022/11/25 11:20:13;;;;;;;0.93;0.93;;;10.40;68.60;;;;;;4955627;28;20277;-72
2022/11/25 11:22:50;;;;;;;1.45;1.35;;;10.10;69.30;;;;;;4949423;28;21113;-72
2022/11/25 11:25:19;;;;;;;2.80;1.83;;;9.90;69.80;;;;;;4952338;28;20198;-72
2022/11/25 11:27:45;;;;;;;1.58;1.20;;;9.70;70.60;;;;;;4954761;28;20764;-71
2022/11/25 11:30:43;;;;;;;1.63;1.63;;;9.60;71.20;;;;;;4952949;28;20284;-73
2022/11/25 11:33:31;;;;;;;1.00;0.98;;;9.60;71.50;;;;;;4948154;28;20222;-73
2022/11/25 11:36:08;;;;;;;4.70;1.35;;;9.20;72.40;;;;;;4952996;28;20186;-73
2022/11/25 11:39:12;;;;;;;1.20;1.10;;;8.90;73.10;;;;;;4952674;28;20265;-73
2022/11/25 11:41:54;;;;;;;2.10;1.77;;;8.90;73.50;;;;;;4885446;29;20200;-73
2022/11/25 11:44:47;;;;;;;1.13;0.90;;;8.90;73.90;;;;;;4888086;29;20209;-73
2022/11/25 11:47:22;;;;;;;1.50;1.10;;;8.80;74.30;;;;;;4885379;29;20694;-73
2022/11/25 11:50:02;;;;;;;2.63;1.02;;;8.70;74.60;;;;;;4886237;29;20742;-73
2022/11/25 11:52:40;;;;;;;0.80;0.80;;;8.70;74.60;;;;;;4886394;29;20733;-73
2022/11/25 11:55:31;;;;;;;1.38;1.38;;;8.60;74.20;;;;;;4886680;29;20268;-73
2022/11/25 11:58:10;;;;;;;1.40;1.30;;;8.70;74.70;;;;;;4885663;29;20257;-73
2022/11/25 12:00:55;;;;;;;1.23;1.23;;;9.10;74.30;;;;;;4886609;29;20207;-73
2022/11/25 12:03:24;;;;;;;1.33;1.33;;;9.50;73.10;;;;;;4882939;29;20236;-73
2022/11/25 12:05:53;;;;;;;1.58;1.40;;;10.00;72.20;;;;;;4883549;29;20780;-73
2022/11/25 12:08:25;;;;;;;2.90;1.65;;;10.30;71.30;;;;;;4884840;29;20193;-73
2022/11/25 12:10:55;;;;;;;2.15;1.25;;;10.60;70.90;;;;;;4885279;29;20197;-73
2022/11/25 12:13:37;;;;;;;1.20;1.17;;;10.80;69.80;;;;;;4885949;29;20225;-74
2022/11/25 12:16:16;;;;;;;1.63;1.58;;;10.80;69.70;;;;;;4882959;29;20192;-74
2022/11/25 12:19:06;;;;;;;1.50;1.50;;;10.80;69.80;;;;;;4950087;28;20187;-73
2022/11/25 12:22:00;;;;;;;1.50;1.40;;;11.20;69.50;;;;;;4953618;28;20265;-73
2022/11/25 12:24:33;;;;;;;2.40;2.20;;;11.60;68.30;;;;;;4952753;28;20191;-73
2022/11/25 12:27:12;;;;;;;1.38;1.33;;;11.80;67.70;;;;;;4955770;28;20198;-72
2022/11/25 12:29:48;;;;;;;1.30;1.30;;;12.00;67.10;;;;;;4952043;28;20249;-72
2022/11/25 12:32:41;;;;;;;1.10;1.10;;;12.10;66.90;;;;;;4951634;28;20249;-73
2022/11/25 12:35:21;;;;;;;1.30;1.30;;;11.90;66.90;;;;;;4946739;28;20594;-74
2022/11/25 12:38:03;;;;;;;1.50;1.42;;;12.00;67.10;;;;;;4951787;28;20187;-73
2022/11/25 12:40:34;;;;;;;2.15;1.48;;;12.10;66.80;;;;;;4952418;28;20191;-73
2022/11/25 12:43:33;;;;;;;1.60;1.60;;;12.00;66.80;;;;;;4956741;28;20206;-73
2022/11/25 12:46:24;;;;;;;1.50;1.40;;;11.90;67.10;;;;;;4879843;29;20205;-73
2022/11/25 12:48:52;;;;;;;1.70;1.60;;;11.90;67.10;;;;;;4814812;29;20199;-73
2022/11/25 12:51:26;;;;;;;1.10;1.10;;;12.10;67.40;;;;;;4817786;29;20196;-73
2022/11/25 12:54:21;;;;;;;1.88;1.77;;;12.10;66.60;;;;;;4819353;29;20253;-73
2022/11/25 12:57:01;;;;;;;1.35;1.35;;;12.10;66.30;;;;;;4800767;29;20204;-73
2022/11/25 12:59:44;;;;;;;1.60;1.58;;;12.10;67.00;;;;;;4801518;29;20699;-74
2022/11/25 13:02:19;;;;;;;1.10;1.10;;;12.20;66.40;;;;;;4801138;29;21014;-73
2022/11/25 13:05:03;;;;;;;1.60;1.50;;;12.10;65.90;;;;;;4801891;29;20203;-73
2022/11/25 13:07:59;;;;;;;1.30;1.30;;;12.10;66.20;;;;;;4801077;29;20265;-72
2022/11/25 13:11:03;;;;;;;1.63;1.52;;;11.90;66.30;;;;;;4763248;30;20295;-73
2022/11/25 13:13:32;;;;;;;2.78;1.80;;;11.80;66.50;;;;;;4766282;30;20260;-74
2022/11/25 13:16:00;;;;;;;3.22;1.67;;;11.70;66.90;;;;;;4767259;30;20292;-73
2022/11/25 13:18:29;;;;;;;1.30;1.30;;;11.60;66.90;;;;;;4766534;30;20196;-73
2022/11/25 13:21:04;;;;;;;5.15;1.65;;;11.50;67.20;;;;;;4762924;30;20261;-73
2022/11/25 13:23:48;;;;;;;2.30;1.60;;;11.50;66.90;;;;;;4791045;29;20254;-74
2022/11/25 13:26:30;;;;;;;1.50;1.50;;;11.40;67.00;;;;;;4824646;29;20210;-72
2022/11/25 13:28:57;;;;;;;1.38;1.33;;;11.30;67.30;;;;;;4836844;29;20198;-72
2022/11/25 13:31:29;;;;;;;2.95;1.80;;;11.00;67.70;;;;;;4836795;29;20194;-73
2022/11/25 13:34:00;;;;;;;1.63;1.50;;;10.90;68.10;;;;;;4847368;29;20281;-73
2022/11/25 13:36:44;;;;;;;1.65;1.55;;;10.60;68.60;;;;;;4855740;29;20198;-73